El Alquian, Spain
Current Conditions -  °F | °C
As of 5:30 PM on Thursday 29 Jan 2015 (Local Time) from LEAM Reporting Station
Few Clouds Few Clouds  
Wind Chill: 61°   Ceiling: Unl
Heat Index: 61°   Visibility: 6mi
Dew Point: 54°   Wind: 14mph
Humidity: 77%   Direction: 220°SW
Pressure: 29.85"   Gusts: NA
Location:  36.85°N, 2.36°W
Report Text: LEAM 291630Z 22012KT 190V260 9999 FEW020 16/12 Q1011
Loading
Personal Weather Stations






























Interactive Weather Map New forecast layout! Learn more

10-Day Weather Forecast

Advertisements
Track Severe Weather on mobile